[Jeden Mittwoch | 1730z - 2030z | EDDM] München Mittwoch

Zu Eventkalender hinzugefügt: 59 Daten

Bernd Mehl

1125821
Vor 28 Tagen war das erste EDDM-EDDT-Shuttle - mit einem für alle unerwartetem intensiven Verkehr. Heute ist die zweite Auflage und wir hoffen, dass wieder so ein Ansturm kommt.

Das Wetter spielt auf jeden Fall mit.

TAF EDDM 180500Z 1806/1912 VRB03KT CAVOK TEMPO 1806/1812 25005KT BECMG 1814/1818 09005KT TEMPO 1900/1908 4000 BCFG=
Die Teams von Tegel und München freuen sich auf IFR und VFR'ler.
 

Dietmar Brinschwitz

940593
RG München - NAV
Liebe Mit-Münchner, vielleicht kann mir ja einer von euch diese Frage beantworten:
die veröffentlichte Platzrunde in Oberschleißheim (EDNX) führt ein Stück durch die CTR und auf der VAC steht etwas von Special regulations, die entsprechende zweite Seite ist aber leider nicht auf VATSIM. Brauche ich für die Platzrunde eine Freigabe für die Kontrollzone oder besagen diese special regulations dass genau das nicht nötig ist?
Folgender Text verbirgt sich dahinter:
"Gem. Nfl 1-318-14 gilt die ATC Freigabe für den CTR Sektor als erteilt, sofern die VMC-Minima des Flughafens München dies zuläßt. Einflüge in die Platzrunde generell aus NW. Direktanflüge wie folgt gestattet, wenn die Verkehrslage es erlaubt: RWY07 via Westende Ruderregattastrecke, RWY25 via BAB Kreuz München-Nord; für Abflüge gilt analoges Verfahren......"
 
Mit einer kleinen aber feinen Besetzung gehen wir an Weihnachten in den Endspurt dieses Jahr.

Genug vom Weihnachtsstess?
Kommt nach München um euere neuen Eroberungen von gestern Probe zu fliegen!

Das Wetter sollte jedoch auch mit den gewohnten Maschinen für spannende Anflüge sorgen...
EDDM 251100Z 2512/2618 28015G25KT 9999 BKN020 TEMPO 2512/2515 30020G30KT 3000 SHRA BKN010 BKN020TCU PROB30 TEMPO 2515/2520 SHRA SCT012 BKN020TCU BECMG 2516/2518 27010KT BECMG 2601/2604 23004KT
Bis später!
 

Pascal Klamm

1451860
RG München - Event
Heute ist es etwas windiger bei uns als letzte Woche.
Da heute auch wieder das vierwöchige Shuttle mit Berlin Tegel stattfindet, würden wir uns sehr auf euren Besuch freuen.
Außerdem ist heute der letzte München Mittwoch vor dem Tower-CPT von @Andreas Stiller. Helft ihm dabei sich gut vorzubereiten.
Wir freuen uns schon auf euch!

EDDM 111550Z 25016KT 9999 FEW035 15/08 Q1017 NOSIG
EDDM 111100Z 1112/1218 26020G30KT 9999 SCT025 BKN035 BECMG 1114/1117 22012KT
BECMG 1119/1121 22007KT
BECMG 1208/1210 23015G25KT PROB30
TEMPO 1210/1215 23020G35KT BECMG 1216/1218 26007KT
 

Pascal Klamm

1451860
RG München - Event
Heute abend öffnet der Flughafen München wieder einmal seine Pforten.
Helft heute vor allem @Andreas Stiller dabei, bei seinem Tower-CPT heute Abend seine Fähigkeiten unter Beweis zu stellen.
Wir freuen uns wie immer schon auf euch!

EDDM 181250Z VRB03KT 9999 SCT044 16/06 Q1028 NOSIG
EDDM 181100Z 1812/1918 06005KT 9999 FEW040
BECMG 1817/1819 VRB02KT
BECMG 1901/1903 4000 BCFG
BECMG 1907/1909 CAVOK
TEMPO 1910/1918 03005KT
 

Samy Greve

874505
RG München - Event
RG München - Mentor
Auch heute Abend erwartet euch wieder ein vollbesetzter Airport in München mit ungewöhnlich ruhigem Wetter.
Die ATC Crew freut sich auf euren Besuch :cool:

EDDM 010500Z 0106/0212 VRB03KT CAVOK BECMG 0106/0108 08007KT BECMG 0117/0119 VRB03KT
 
Zuletzt bearbeitet:

Michael Wellner

1024937
RG München - Event
Ja, es ist schon wieder Mittwoch und wie gewohnt starten wir auch kurz vor Ostern erneut voll durch beim München Mittwoch und bieten euch ab 1930lcl - also 1730z - besten Service in München (EDDM).
Derzeit ist noch kein Wölkchen am Himmel zu sehen und auch der Wind hält sich mit 3kt sehr zurück und wird vermutlich auch gegen Abend nur auf 5kt ansteigen.

METAR:
EDDM 080850Z VRB03KT CAVOK 14/03 Q1026 NOSIG

TAF:
EDDM 080500Z 0806/0912 07004KT CAVOK BECMG 0908/0910 30005KT



Sonnenschein und wolkenloser Himmel sind also schonmal da - jetzt fehlt nur noch ihr mit Euren Maschinen für einen schönen Flugtag am "Franz Josef Strauß" Airport. Egal ob IFR- oder VFR-Pilot, alter Hase oder Newbie, die Kontroller freuen sich über jeden Flieger in ihrem Luftraum.
--

_________________VATSim-Germany / RG München / Event-Department
 
Zuletzt bearbeitet:
Oben